createdAt,value
2018-09-17T00:00:58.614Z,18.60
2018-09-17T00:03:26.819Z,18.60
2018-09-17T00:05:54.987Z,18.60
2018-09-17T00:08:23.143Z,18.50
2018-09-17T00:10:51.302Z,18.60
2018-09-17T00:13:19.711Z,18.50
2018-09-17T00:15:48.103Z,18.50
2018-09-17T00:18:16.267Z,18.50
2018-09-17T00:20:44.476Z,18.50
2018-09-17T00:23:12.898Z,18.40
2018-09-17T00:25:41.063Z,18.30
2018-09-17T00:28:09.896Z,18.30
2018-09-17T00:30:38.057Z,18.30
2018-09-17T00:33:06.671Z,18.30
2018-09-17T00:35:34.869Z,18.30
2018-09-17T00:38:03.047Z,18.30
2018-09-17T00:40:31.235Z,18.30
2018-09-17T00:42:59.414Z,18.20
2018-09-17T00:45:27.607Z,18.20
2018-09-17T00:47:55.789Z,18.20
2018-09-17T00:50:23.983Z,18.20
2018-09-17T00:52:52.170Z,18.20
2018-09-17T00:55:20.405Z,18.10
2018-09-17T00:57:48.648Z,18.10
2018-09-17T01:00:16.830Z,18.10
2018-09-17T01:02:45.254Z,18.00
2018-09-17T01:05:13.446Z,18.00
2018-09-17T01:07:41.627Z,17.90
2018-09-17T01:10:09.810Z,18.00
2018-09-17T01:12:37.998Z,17.90
2018-09-17T01:15:06.216Z,17.90
2018-09-17T01:17:34.397Z,17.90
2018-09-17T01:20:02.586Z,17.80
2018-09-17T01:22:30.779Z,17.80
2018-09-17T01:24:58.962Z,17.80
2018-09-17T01:27:27.166Z,17.80
2018-09-17T01:29:55.387Z,17.80
2018-09-17T01:32:23.711Z,17.80
2018-09-17T01:34:51.915Z,17.70
2018-09-17T01:37:20.389Z,17.70
2018-09-17T01:39:48.818Z,17.70
2018-09-17T01:42:17.023Z,17.60
2018-09-17T01:44:45.201Z,17.60
2018-09-17T01:47:13.390Z,17.50
2018-09-17T01:49:41.582Z,17.50
2018-09-17T01:52:09.767Z,17.50
2018-09-17T01:54:37.950Z,17.50
2018-09-17T01:57:06.142Z,17.40
2018-09-17T01:59:34.327Z,17.40
2018-09-17T02:02:02.514Z,17.40
2018-09-17T02:04:30.743Z,17.30
2018-09-17T02:06:58.960Z,17.30
2018-09-17T02:09:27.152Z,17.30
2018-09-17T02:11:55.430Z,17.30
2018-09-17T02:14:23.618Z,17.30
2018-09-17T02:16:51.810Z,17.30
2018-09-17T02:19:19.985Z,17.20
2018-09-17T02:21:48.183Z,17.20
2018-09-17T02:24:16.374Z,17.10
2018-09-17T02:26:44.575Z,17.10
2018-09-17T02:29:12.742Z,17.10
2018-09-17T02:31:40.939Z,17.10
2018-09-17T02:34:09.118Z,17.00
2018-09-17T02:36:37.294Z,17.00
2018-09-17T02:39:06.702Z,17.00
2018-09-17T02:41:34.884Z,17.00
2018-09-17T02:44:03.051Z,17.00
2018-09-17T02:46:31.443Z,17.00
2018-09-17T02:48:59.599Z,17.00
2018-09-17T02:51:27.754Z,17.00
2018-09-17T02:53:55.914Z,17.00
2018-09-17T02:56:24.082Z,17.00
2018-09-17T02:58:52.706Z,16.90
2018-09-17T03:01:20.903Z,16.80
2018-09-17T03:03:49.378Z,16.80
2018-09-17T03:06:17.519Z,16.80
2018-09-17T03:08:45.686Z,16.70
2018-09-17T03:11:13.842Z,16.70
2018-09-17T03:13:42.056Z,16.70
2018-09-17T03:16:10.256Z,16.70
2018-09-17T03:18:50.668Z,16.70
2018-09-17T03:21:18.819Z,16.70
2018-09-17T03:23:46.978Z,16.70
2018-09-17T03:26:15.135Z,16.70
2018-09-17T03:28:43.587Z,16.60
2018-09-17T03:31:11.740Z,16.60
2018-09-17T03:33:39.902Z,16.60
2018-09-17T03:36:08.095Z,16.60
2018-09-17T03:38:43.263Z,16.60
2018-09-17T03:41:12.226Z,16.50
2018-09-17T03:43:41.686Z,16.60
2018-09-17T03:46:09.954Z,16.60
2018-09-17T03:48:39.007Z,16.60
2018-09-17T03:51:07.898Z,16.50
2018-09-17T03:53:36.474Z,16.50
2018-09-17T03:56:04.994Z,16.50
2018-09-17T03:58:33.674Z,16.50
2018-09-17T04:01:02.631Z,16.50
2018-09-17T04:03:30.851Z,16.50
2018-09-17T04:05:59.282Z,16.40
2018-09-17T04:08:28.778Z,16.50
2018-09-17T04:10:56.963Z,16.40
2018-09-17T04:13:25.167Z,16.40
2018-09-17T04:15:53.861Z,16.50
2018-09-17T04:18:22.066Z,16.50
2018-09-17T04:20:50.292Z,16.50
2018-09-17T04:23:25.035Z,16.50
2018-09-17T04:25:53.213Z,16.40
2018-09-17T04:28:21.406Z,16.40
2018-09-17T04:30:49.644Z,16.40
2018-09-17T04:33:17.830Z,16.40
2018-09-17T04:35:46.287Z,16.40
2018-09-17T04:38:14.470Z,16.40
2018-09-17T04:40:42.650Z,16.40
2018-09-17T04:43:10.851Z,16.40
2018-09-17T04:45:39.363Z,16.40
2018-09-17T04:48:07.564Z,16.30
2018-09-17T04:50:35.746Z,16.30
2018-09-17T04:53:03.964Z,16.30
2018-09-17T04:55:32.192Z,16.30
2018-09-17T04:58:00.391Z,16.30
2018-09-17T05:00:28.598Z,16.30
2018-09-17T05:02:56.923Z,16.20
2018-09-17T05:05:25.266Z,16.20
2018-09-17T05:07:53.450Z,16.10
2018-09-17T05:10:21.637Z,16.10
2018-09-17T05:12:49.819Z,16.20
2018-09-17T05:15:18.003Z,16.20
2018-09-17T05:17:46.183Z,16.20
2018-09-17T05:20:14.375Z,16.20
2018-09-17T05:22:42.820Z,16.20
2018-09-17T05:25:11.002Z,16.20
2018-09-17T05:27:39.210Z,16.20
2018-09-17T05:30:07.497Z,16.20
2018-09-17T05:32:35.666Z,16.20
2018-09-17T05:35:03.963Z,16.20
2018-09-17T05:37:32.111Z,16.30
2018-09-17T05:40:00.303Z,16.30
2018-09-17T05:42:28.486Z,16.30
2018-09-17T05:44:56.919Z,16.30
2018-09-17T05:47:25.111Z,16.30
2018-09-17T05:49:53.299Z,16.40
2018-09-17T05:52:21.482Z,16.40
2018-09-17T05:54:49.674Z,16.50
2018-09-17T05:57:17.865Z,16.50
2018-09-17T05:59:46.091Z,16.50
2018-09-17T06:02:14.278Z,16.60
2018-09-17T06:04:42.776Z,16.70
2018-09-17T06:07:11.037Z,16.70
2018-09-17T06:09:39.268Z,16.80
2018-09-17T06:12:07.399Z,16.90
2018-09-17T06:14:35.639Z,17.00
2018-09-17T06:17:03.779Z,17.00
2018-09-17T06:19:31.970Z,17.10
2018-09-17T06:22:00.154Z,17.20
2018-09-17T06:24:28.346Z,17.30
2018-09-17T06:26:56.798Z,17.30
2018-09-17T06:29:24.982Z,17.40
2018-09-17T06:31:53.170Z,17.50
2018-09-17T06:34:21.347Z,17.60
2018-09-17T06:36:49.515Z,17.70
2018-09-17T06:39:17.674Z,17.70
2018-09-17T06:41:45.843Z,17.80
2018-09-17T06:44:14.111Z,18.00
2018-09-17T06:46:42.298Z,18.10
2018-09-17T06:49:10.486Z,18.20
2018-09-17T06:51:38.676Z,18.20
2018-09-17T06:54:06.988Z,18.40
2018-09-17T06:56:35.137Z,18.50
2018-09-17T06:59:03.301Z,18.60
2018-09-17T07:01:31.462Z,18.70
2018-09-17T07:03:59.617Z,18.80
2018-09-17T07:06:27.782Z,18.80
2018-09-17T07:08:55.933Z,19.00
2018-09-17T07:11:24.162Z,19.10
2018-09-17T07:13:52.310Z,19.20
2018-09-17T07:16:20.475Z,19.40
2018-09-17T07:18:48.626Z,19.40
2018-09-17T07:21:16.794Z,19.50
2018-09-17T07:23:44.974Z,19.50
2018-09-17T07:26:13.126Z,19.60
2018-09-17T07:28:41.325Z,19.70
2018-09-17T07:31:09.525Z,19.80
2018-09-17T07:33:37.683Z,19.90
2018-09-17T07:36:05.864Z,20.00
2018-09-17T07:38:34.007Z,20.20
2018-09-17T07:41:02.175Z,20.30
2018-09-17T07:43:30.340Z,20.40
2018-09-17T07:45:58.503Z,20.40
2018-09-17T07:48:26.653Z,20.50
2018-09-17T07:50:55.031Z,20.60
2018-09-17T07:53:23.191Z,20.70
2018-09-17T07:55:51.349Z,20.80
2018-09-17T07:58:19.858Z,20.80
2018-09-17T08:00:48.430Z,20.70
2018-09-17T08:03:16.590Z,20.90
2018-09-17T08:05:44.942Z,20.80
2018-09-17T08:08:13.139Z,20.50
2018-09-17T08:10:41.624Z,20.60
2018-09-17T08:13:09.995Z,20.80
2018-09-17T08:15:38.851Z,21.00
2018-09-17T08:18:07.000Z,21.10
2018-09-17T08:20:35.306Z,21.20
2018-09-17T08:23:03.466Z,21.30
2018-09-17T08:25:31.943Z,21.30
2018-09-17T08:28:00.041Z,21.40
2018-09-17T08:30:28.189Z,21.50
2018-09-17T08:32:56.339Z,21.60
2018-09-17T08:35:24.575Z,21.80
2018-09-17T08:37:52.767Z,21.80
2018-09-17T08:40:20.990Z,21.90
2018-09-17T08:42:49.166Z,21.90
2018-09-17T08:45:17.350Z,22.10
2018-09-17T08:47:45.573Z,22.10
2018-09-17T08:50:13.816Z,22.10
2018-09-17T08:52:42.052Z,22.30
2018-09-17T08:55:11.158Z,22.40
2018-09-17T08:57:40.970Z,22.60
2018-09-17T09:00:14.619Z,22.60
2018-09-17T09:02:48.299Z,22.60
2018-09-17T09:05:21.850Z,22.70
2018-09-17T09:07:55.265Z,22.90
2018-09-17T09:10:28.930Z,22.90
2018-09-17T09:13:02.687Z,23.10
2018-09-17T09:15:36.571Z,23.00
2018-09-17T09:18:06.118Z,23.00
2018-09-17T09:20:34.455Z,23.10
2018-09-17T09:23:02.638Z,23.10
2018-09-17T09:25:30.898Z,23.10
2018-09-17T09:27:59.118Z,23.10
2018-09-17T09:30:27.578Z,22.90
2018-09-17T09:32:55.762Z,23.20
2018-09-17T09:35:24.105Z,23.40
2018-09-17T09:37:52.796Z,23.50
2018-09-17T09:40:21.063Z,23.60
2018-09-17T09:42:49.246Z,23.60
2018-09-17T09:45:17.610Z,23.60
2018-09-17T09:47:46.910Z,23.80
2018-09-17T09:50:15.103Z,23.60
2018-09-17T09:52:43.337Z,23.90
2018-09-17T09:55:11.661Z,24.20
2018-09-17T09:57:39.859Z,24.40
2018-09-17T10:00:14.503Z,24.40
2018-09-17T10:02:51.983Z,24.20
2018-09-17T10:05:20.513Z,24.50
2018-09-17T10:07:48.697Z,24.70
2018-09-17T10:10:22.424Z,24.90
2018-09-17T10:12:56.079Z,24.90
2018-09-17T10:15:29.759Z,24.90
2018-09-17T10:18:03.741Z,24.50
2018-09-17T10:20:31.959Z,24.60
2018-09-17T10:23:00.172Z,24.80
2018-09-17T10:25:28.362Z,25.20
2018-09-17T10:27:56.551Z,25.30
2018-09-17T10:30:24.741Z,25.50
2018-09-17T10:32:52.919Z,25.70
2018-09-17T10:35:21.083Z,25.70
2018-09-17T10:37:49.239Z,25.90
2018-09-17T10:40:17.715Z,25.90
2018-09-17T10:42:45.867Z,26.10
2018-09-17T10:45:14.035Z,26.10
2018-09-17T10:47:42.186Z,26.20
2018-09-17T10:50:10.358Z,26.30
2018-09-17T10:52:38.826Z,26.30
2018-09-17T10:55:06.994Z,26.60
2018-09-17T10:57:35.147Z,26.70
2018-09-17T11:00:03.306Z,26.80
2018-09-17T11:02:31.648Z,26.70
2018-09-17T11:04:59.842Z,26.90
2018-09-17T11:07:28.182Z,27.20
2018-09-17T11:09:56.331Z,27.00
2018-09-17T11:12:24.479Z,27.20
2018-09-17T11:14:53.042Z,27.30
2018-09-17T11:17:21.272Z,27.50
2018-09-17T11:19:49.338Z,27.50
2018-09-17T11:22:17.487Z,27.60
2018-09-17T11:24:45.695Z,27.50
2018-09-17T11:27:13.843Z,27.90
2018-09-17T11:29:42.242Z,28.10
2018-09-17T11:32:10.954Z,27.80
2018-09-17T11:34:39.111Z,27.80
2018-09-17T11:37:07.622Z,28.10
2018-09-17T11:39:35.808Z,28.50
2018-09-17T11:42:03.984Z,28.70
2018-09-17T11:44:32.126Z,28.70
2018-09-17T11:47:00.307Z,28.50
2018-09-17T11:49:28.434Z,28.70
2018-09-17T11:51:56.591Z,28.90
2018-09-17T11:54:24.744Z,29.00
2018-09-17T11:56:52.898Z,28.90
2018-09-17T11:59:21.050Z,29.20
2018-09-17T12:01:55.496Z,29.30
2018-09-17T12:04:29.174Z,29.40
2018-09-17T12:07:02.974Z,29.30
2018-09-17T12:09:31.140Z,29.20
2018-09-17T12:11:59.329Z,29.40
2018-09-17T12:14:27.510Z,29.40
2018-09-17T12:16:55.671Z,29.10
2018-09-17T12:19:23.819Z,29.00
2018-09-17T12:21:52.290Z,29.40
2018-09-17T12:24:20.723Z,29.70
2018-09-17T12:26:48.879Z,29.80
2018-09-17T12:29:17.022Z,29.80
2018-09-17T12:31:45.178Z,29.60
2018-09-17T12:34:13.335Z,29.80
2018-09-17T12:36:41.494Z,29.80
2018-09-17T12:39:10.631Z,29.90
2018-09-17T12:41:38.792Z,30.10
2018-09-17T12:44:06.934Z,29.90
2018-09-17T12:46:35.111Z,30.00
2018-09-17T12:49:03.283Z,30.20
2018-09-17T12:51:31.464Z,30.30
2018-09-17T12:53:59.770Z,30.30
2018-09-17T12:56:27.926Z,30.30
2018-09-17T12:58:56.082Z,30.40
2018-09-17T13:01:24.234Z,30.60
2018-09-17T13:03:52.387Z,30.50
2018-09-17T13:06:20.543Z,30.60
2018-09-17T13:08:48.704Z,30.60
2018-09-17T13:11:16.850Z,30.60
2018-09-17T13:13:45.010Z,30.70
2018-09-17T13:16:13.176Z,30.60
2018-09-17T13:18:41.335Z,30.70
2018-09-17T13:21:09.574Z,30.60
2018-09-17T13:23:37.870Z,30.60
2018-09-17T13:26:06.080Z,30.70
2018-09-17T13:28:34.280Z,30.70
2018-09-17T13:31:02.443Z,30.70
2018-09-17T13:33:30.611Z,30.60
2018-09-17T13:35:58.770Z,30.60
2018-09-17T13:38:26.933Z,30.70
2018-09-17T13:40:55.078Z,30.70
2018-09-17T13:43:23.329Z,30.60
2018-09-17T13:45:51.751Z,30.80
2018-09-17T13:48:20.122Z,30.70
2018-09-17T13:50:48.266Z,30.60
2018-09-17T13:53:16.440Z,30.70
2018-09-17T13:55:44.572Z,30.80
2018-09-17T13:58:12.737Z,30.70
2018-09-17T14:00:40.925Z,30.80
2018-09-17T14:03:09.079Z,30.80
2018-09-17T14:05:37.263Z,30.90
2018-09-17T14:08:05.607Z,30.90
2018-09-17T14:10:33.775Z,31.30
2018-09-17T14:13:01.963Z,31.10
2018-09-17T14:15:30.095Z,31.20
2018-09-17T14:17:58.263Z,31.10
2018-09-17T14:20:26.405Z,31.10
2018-09-17T14:22:54.605Z,31.00
2018-09-17T14:25:22.744Z,30.80
2018-09-17T14:27:50.895Z,30.80
2018-09-17T14:30:19.069Z,30.80
2018-09-17T14:32:52.687Z,30.60
2018-09-17T14:35:20.794Z,30.50
2018-09-17T14:37:49.174Z,30.50
2018-09-17T14:40:17.369Z,30.40
2018-09-17T14:42:46.011Z,30.20
2018-09-17T14:45:14.592Z,29.90
2018-09-17T14:47:42.807Z,29.90
2018-09-17T14:50:10.981Z,29.70
2018-09-17T14:52:39.343Z,29.60
2018-09-17T14:55:07.506Z,29.40
2018-09-17T14:57:36.765Z,29.40
2018-09-17T15:00:05.482Z,29.30
2018-09-17T15:02:34.733Z,29.10
2018-09-17T15:05:03.529Z,29.00
2018-09-17T15:07:31.753Z,28.90
2018-09-17T15:10:00.515Z,28.80
2018-09-17T15:12:28.862Z,28.60
2018-09-17T15:14:56.961Z,28.70
2018-09-17T15:17:25.275Z,28.60
2018-09-17T15:19:53.525Z,28.50
2018-09-17T15:22:21.982Z,28.40
2018-09-17T15:24:50.626Z,28.20
2018-09-17T15:27:18.806Z,28.20
2018-09-17T15:29:47.010Z,28.10
2018-09-17T15:32:15.227Z,28.00
2018-09-17T15:34:43.394Z,28.00
2018-09-17T15:37:11.810Z,27.90
2018-09-17T15:39:40.018Z,27.90
2018-09-17T15:42:08.623Z,27.80
2018-09-17T15:44:37.152Z,27.70
2018-09-17T15:47:05.696Z,27.60
2018-09-17T15:49:33.878Z,27.60
2018-09-17T15:52:02.104Z,27.50
2018-09-17T15:54:30.324Z,27.50
2018-09-17T15:56:58.510Z,27.40
2018-09-17T15:59:26.689Z,27.30
2018-09-17T16:01:54.878Z,27.20
2018-09-17T16:04:23.063Z,27.20
2018-09-17T16:06:51.842Z,27.10
2018-09-17T16:09:20.246Z,27.00
2018-09-17T16:11:48.434Z,27.00
2018-09-17T16:14:16.633Z,27.00
2018-09-17T16:16:44.847Z,27.00
2018-09-17T16:19:13.143Z,26.90
2018-09-17T16:21:41.323Z,26.90
2018-09-17T16:24:09.503Z,26.80
2018-09-17T16:26:37.699Z,26.60
2018-09-17T16:29:06.039Z,26.50
2018-09-17T16:31:34.240Z,26.40
2018-09-17T16:34:02.447Z,26.40
2018-09-17T16:36:30.854Z,26.30
2018-09-17T16:38:59.230Z,26.20
2018-09-17T16:41:27.385Z,26.00
2018-09-17T16:43:55.534Z,25.90
2018-09-17T16:46:23.685Z,25.70
2018-09-17T16:48:51.834Z,25.60
2018-09-17T16:51:20.027Z,25.50
2018-09-17T16:53:48.254Z,25.40
2018-09-17T16:56:16.331Z,25.30
2018-09-17T16:58:44.497Z,25.20
2018-09-17T17:01:12.634Z,25.00
2018-09-17T17:03:40.798Z,24.70
2018-09-17T17:06:08.966Z,24.60
2018-09-17T17:08:37.126Z,24.50
2018-09-17T17:11:05.336Z,24.30
2018-09-17T17:13:33.503Z,24.30
2018-09-17T17:16:01.703Z,24.20
2018-09-17T17:18:29.827Z,24.10
2018-09-17T17:20:58.007Z,23.90
2018-09-17T17:23:26.190Z,23.80
2018-09-17T17:25:54.339Z,23.60
2018-09-17T17:28:22.502Z,23.50
2018-09-17T17:30:50.666Z,23.40
2018-09-17T17:33:18.966Z,23.20
2018-09-17T17:35:47.119Z,23.20
2018-09-17T17:38:15.303Z,23.10
2018-09-17T17:40:43.577Z,22.90
2018-09-17T17:43:11.717Z,22.80
2018-09-17T17:45:39.951Z,22.70
2018-09-17T17:48:08.150Z,22.60
2018-09-17T17:50:36.330Z,22.50
2018-09-17T17:53:04.530Z,22.50
2018-09-17T17:55:32.706Z,22.30
2018-09-17T17:58:00.940Z,22.20
2018-09-17T18:00:29.079Z,22.10
2018-09-17T18:02:57.250Z,22.10
2018-09-17T18:05:25.422Z,22.00
2018-09-17T18:07:53.803Z,21.90
2018-09-17T18:10:22.114Z,21.90
2018-09-17T18:12:50.607Z,21.90
2018-09-17T18:15:18.925Z,21.80
2018-09-17T18:17:47.321Z,21.70
2018-09-17T18:20:16.010Z,21.70
2018-09-17T18:22:45.252Z,21.60
2018-09-17T18:25:13.858Z,21.60
2018-09-17T18:27:42.099Z,21.50
2018-09-17T18:30:10.403Z,21.50
2018-09-17T18:32:38.630Z,21.40
2018-09-17T18:35:07.023Z,21.40
2018-09-17T18:37:35.311Z,21.30
2018-09-17T18:40:03.528Z,21.30
2018-09-17T18:42:32.241Z,21.20
2018-09-17T18:45:01.134Z,21.10
2018-09-17T18:47:29.555Z,21.10
2018-09-17T18:49:58.663Z,21.00
2018-09-17T18:52:26.982Z,20.90
2018-09-17T18:54:55.803Z,20.90
2018-09-17T18:57:24.221Z,20.80
2018-09-17T18:59:53.100Z,20.80
2018-09-17T19:02:21.504Z,20.70
2018-09-17T19:04:49.875Z,20.70
2018-09-17T19:07:18.648Z,20.70
2018-09-17T19:09:48.880Z,20.60
2018-09-17T19:12:18.334Z,20.60
2018-09-17T19:14:51.936Z,20.50
2018-09-17T19:17:25.640Z,20.50
2018-09-17T19:19:54.504Z,20.40
2018-09-17T19:22:28.014Z,20.40
2018-09-17T19:24:56.296Z,20.40
2018-09-17T19:27:29.791Z,20.30
2018-09-17T19:29:58.182Z,20.30
2018-09-17T19:32:26.528Z,20.20
2018-09-17T19:34:54.955Z,20.20
2018-09-17T19:37:28.894Z,20.10
2018-09-17T19:40:04.304Z,20.10
2018-09-17T19:42:32.832Z,20.10
2018-09-17T19:45:07.043Z,20.10
2018-09-17T19:47:35.436Z,20.10
2018-09-17T19:50:08.220Z,20.10
2018-09-17T19:52:36.535Z,20.00
2018-09-17T19:55:04.840Z,20.00
2018-09-17T19:58:41.974Z,20.00
2018-09-17T20:01:10.268Z,20.00
2018-09-17T20:03:38.541Z,19.90
2018-09-17T20:06:12.263Z,19.80
2018-09-17T20:08:40.419Z,19.80
2018-09-17T20:11:08.606Z,19.80
2018-09-17T20:13:37.264Z,19.70
2018-09-17T20:16:05.506Z,19.70
2018-09-17T20:18:34.030Z,19.70
2018-09-17T20:21:02.266Z,19.60
2018-09-17T20:23:30.527Z,19.60
2018-09-17T20:25:58.706Z,19.50
2018-09-17T20:28:27.960Z,19.50
2018-09-17T20:30:56.571Z,19.40
2018-09-17T20:33:28.247Z,19.40
2018-09-17T20:35:56.448Z,19.40
2018-09-17T20:38:24.801Z,19.40
2018-09-17T20:40:52.919Z,19.40
2018-09-17T20:43:21.138Z,19.30
2018-09-17T20:45:49.768Z,19.30
2018-09-17T20:48:18.099Z,19.20
2018-09-17T20:50:46.295Z,19.30
2018-09-17T20:53:14.479Z,19.20
2018-09-17T20:55:42.816Z,19.20
2018-09-17T20:58:10.919Z,19.10
2018-09-17T21:00:39.143Z,19.10
2018-09-17T21:03:07.343Z,19.10
2018-09-17T21:05:35.548Z,19.10
2018-09-17T21:08:03.756Z,19.10
2018-09-17T21:10:31.953Z,19.10
2018-09-17T21:13:00.645Z,19.00
2018-09-17T21:15:28.806Z,19.00
2018-09-17T21:17:57.124Z,19.00
2018-09-17T21:20:25.349Z,18.90
2018-09-17T21:22:53.543Z,18.90
2018-09-17T21:25:21.987Z,18.80
2018-09-17T21:27:50.284Z,18.80
2018-09-17T21:30:18.471Z,18.80
2018-09-17T21:32:46.655Z,18.80
2018-09-17T21:35:14.861Z,18.80
2018-09-17T21:37:43.018Z,18.80
2018-09-17T21:40:11.239Z,18.70
2018-09-17T21:42:39.408Z,18.70
2018-09-17T21:45:08.811Z,18.60
2018-09-17T21:47:36.983Z,18.60
2018-09-17T21:50:05.286Z,18.60
2018-09-17T21:52:33.561Z,18.60
2018-09-17T21:55:01.761Z,18.60
2018-09-17T21:57:30.027Z,18.60
2018-09-17T21:59:58.229Z,18.50
2018-09-17T22:02:26.710Z,18.50
2018-09-17T22:04:54.975Z,18.50
2018-09-17T22:07:24.318Z,18.40
2018-09-17T22:09:52.705Z,18.40
2018-09-17T22:12:21.402Z,18.30
2018-09-17T22:14:50.515Z,18.30
2018-09-17T22:17:18.772Z,18.30
2018-09-17T22:19:47.058Z,18.30
2018-09-17T22:22:15.325Z,18.30
2018-09-17T22:24:43.534Z,18.30
2018-09-17T22:27:11.860Z,18.20
2018-09-17T22:29:40.086Z,18.20
2018-09-17T22:32:08.263Z,18.10
2018-09-17T22:34:36.727Z,18.10
2018-09-17T22:37:05.227Z,18.20
2018-09-17T22:39:33.383Z,18.10
2018-09-17T22:42:01.561Z,18.10
2018-09-17T22:44:29.715Z,18.10
2018-09-17T22:46:57.878Z,18.10
2018-09-17T22:49:26.042Z,18.00
2018-09-17T22:51:54.208Z,18.00
2018-09-17T22:54:22.375Z,18.00
2018-09-17T22:56:50.588Z,18.00
2018-09-17T22:59:18.763Z,18.00
2018-09-17T23:01:46.957Z,17.90
2018-09-17T23:04:15.119Z,17.90
2018-09-17T23:06:43.287Z,17.90
2018-09-17T23:09:11.807Z,17.90
2018-09-17T23:11:39.975Z,17.80
2018-09-17T23:14:08.139Z,17.80
2018-09-17T23:16:36.545Z,17.80
2018-09-17T23:19:05.035Z,17.80
2018-09-17T23:21:33.199Z,17.70
2018-09-17T23:24:01.391Z,17.70
2018-09-17T23:26:29.787Z,17.70
2018-09-17T23:28:57.984Z,17.70
2018-09-17T23:31:26.189Z,17.70
2018-09-17T23:33:54.372Z,17.60
2018-09-17T23:36:22.530Z,17.60
2018-09-17T23:38:50.702Z,17.60
2018-09-17T23:41:18.877Z,17.50
2018-09-17T23:43:47.042Z,17.50
2018-09-17T23:46:15.242Z,17.50
2018-09-17T23:48:43.411Z,17.50
2018-09-17T23:51:11.574Z,17.50
2018-09-17T23:53:39.791Z,17.50
2018-09-17T23:56:07.951Z,17.50
2018-09-17T23:58:36.118Z,17.40
